Time;durP1;ratioP1;P1;durP2;ratioP2;P2;SDS_P1;SDS_P2;PMS_P1;PMS_P2;Temp;Humidity;BMP_temperature;BMP_pressure;BME280_temperature;BME280_humidity;BME280_pressure;Samples;Min_cycle;Max_cycle;Signal;HPM_P1;HPM_P2
2023/12/29 00:00:27;;;;;;;4.83;1.50;;;11.20;99.90;;;;;;5029317;28;20218;-75
2023/12/29 00:02:55;;;;;;;3.10;1.50;;;11.20;99.90;;;;;;5032637;28;20222;-76
2023/12/29 00:05:22;;;;;;;3.57;1.17;;;11.20;99.90;;;;;;5020915;28;20197;-75
2023/12/29 00:07:49;;;;;;;2.10;1.20;;;11.10;99.90;;;;;;5027570;28;20191;-75
2023/12/29 00:10:18;;;;;;;4.37;1.60;;;11.10;99.90;;;;;;5033740;28;20187;-76
2023/12/29 00:12:46;;;;;;;2.03;1.10;;;11.20;99.90;;;;;;5031993;28;20219;-75
2023/12/29 00:15:13;;;;;;;4.40;1.40;;;11.20;99.90;;;;;;5018325;28;20208;-75
2023/12/29 00:17:40;;;;;;;4.87;1.30;;;11.20;99.90;;;;;;5012822;28;20649;-75
2023/12/29 00:20:09;;;;;;;5.60;1.77;;;11.20;99.90;;;;;;5012649;28;20216;-75
2023/12/29 00:22:36;;;;;;;4.30;1.50;;;11.20;99.90;;;;;;5012524;28;20211;-75
2023/12/29 00:25:05;;;;;;;3.90;1.20;;;11.20;99.90;;;;;;5024140;28;20207;-75
2023/12/29 00:27:34;;;;;;;6.67;1.73;;;11.20;99.90;;;;;;5012180;28;20200;-75
2023/12/29 00:30:01;;;;;;;6.00;1.53;;;11.10;99.90;;;;;;5026491;28;20195;-75
2023/12/29 00:32:28;;;;;;;4.00;1.50;;;11.20;99.90;;;;;;5033406;28;20224;-75
2023/12/29 00:34:56;;;;;;;4.97;1.40;;;11.20;99.90;;;;;;5031781;28;20198;-75
2023/12/29 00:37:23;;;;;;;5.13;1.63;;;11.20;99.90;;;;;;5022044;28;20199;-75
2023/12/29 00:39:51;;;;;;;4.97;1.30;;;11.20;99.90;;;;;;5028217;28;20214;-75
2023/12/29 00:42:38;;;;;;;4.77;1.60;;;11.20;99.90;;;;;;5011785;28;20230;-75
2023/12/29 00:45:06;;;;;;;6.50;1.50;;;11.20;99.90;;;;;;5018670;28;20198;-75
2023/12/29 00:47:35;;;;;;;2.60;1.03;;;11.20;99.90;;;;;;5011895;28;20210;-75
2023/12/29 00:50:02;;;;;;;3.17;1.23;;;11.20;99.90;;;;;;5011999;28;20214;-75
2023/12/29 00:52:30;;;;;;;5.60;1.40;;;11.20;99.90;;;;;;5011986;28;20230;-75
2023/12/29 00:54:57;;;;;;;3.50;1.30;;;11.10;99.90;;;;;;5011820;28;20203;-75
2023/12/29 00:57:24;;;;;;;6.03;1.20;;;11.20;99.90;;;;;;5012269;28;20210;-75
2023/12/29 00:59:53;;;;;;;5.23;1.53;;;11.20;99.90;;;;;;5019398;28;20214;-75
2023/12/29 01:02:20;;;;;;;3.53;1.10;;;11.20;99.90;;;;;;5011459;28;20215;-75
2023/12/29 01:04:48;;;;;;;3.57;1.23;;;11.20;99.90;;;;;;5027675;28;20203;-75
2023/12/29 01:07:15;;;;;;;4.60;1.10;;;11.20;99.90;;;;;;5013208;28;20199;-75
2023/12/29 01:09:42;;;;;;;3.60;1.00;;;11.10;99.90;;;;;;5011983;28;20199;-76
2023/12/29 01:12:10;;;;;;;4.47;1.10;;;11.20;99.90;;;;;;5013337;28;20211;-76
2023/12/29 01:14:37;;;;;;;6.67;1.73;;;11.20;99.90;;;;;;5015412;28;20194;-75
2023/12/29 01:17:07;;;;;;;3.57;1.67;;;11.20;99.90;;;;;;5031171;28;20203;-75
2023/12/29 01:19:34;;;;;;;3.83;1.30;;;11.20;99.90;;;;;;5031761;28;20206;-75
2023/12/29 01:22:02;;;;;;;4.90;1.33;;;11.20;99.90;;;;;;5032960;28;20206;-75
2023/12/29 01:24:29;;;;;;;3.37;1.00;;;11.20;99.90;;;;;;5030605;28;20221;-75
2023/12/29 01:26:58;;;;;;;5.47;1.30;;;11.20;99.90;;;;;;5027741;28;20191;-75
2023/12/29 01:29:26;;;;;;;4.17;1.23;;;11.20;99.90;;;;;;5015525;28;20222;-75
2023/12/29 01:31:53;;;;;;;4.10;1.60;;;11.20;99.90;;;;;;5028010;28;20223;-76
2023/12/29 01:34:22;;;;;;;4.03;1.33;;;11.20;99.90;;;;;;5011584;28;20200;-75
2023/12/29 01:36:49;;;;;;;3.30;1.17;;;11.20;99.90;;;;;;5011311;28;20200;-76
2023/12/29 01:39:17;;;;;;;5.83;1.20;;;11.20;99.90;;;;;;5011158;28;20542;-75
2023/12/29 01:41:44;;;;;;;3.07;1.00;;;11.10;99.90;;;;;;5010932;28;20216;-75
2023/12/29 01:44:29;;;;;;;4.53;1.30;;;11.20;99.90;;;;;;5015196;28;20208;-75
2023/12/29 01:46:59;;;;;;;4.63;1.30;;;11.10;99.90;;;;;;5022848;28;20200;-75
2023/12/29 01:49:29;;;;;;;5.83;1.40;;;11.20;99.90;;;;;;5015483;28;20196;-75
2023/12/29 01:51:59;;;;;;;4.23;1.60;;;11.20;99.90;;;;;;5015313;28;20230;-75
2023/12/29 01:54:31;;;;;;;6.10;1.63;;;11.10;99.90;;;;;;5014578;28;20665;-75
2023/12/29 01:57:00;;;;;;;3.53;1.57;;;11.20;99.90;;;;;;5014739;28;20217;-75
2023/12/29 01:59:29;;;;;;;7.00;1.30;;;11.10;99.90;;;;;;5030244;28;20199;-75
2023/12/29 02:01:56;;;;;;;7.53;2.03;;;11.00;99.90;;;;;;5034502;28;20226;-76
2023/12/29 02:04:25;;;;;;;5.57;1.60;;;10.90;99.90;;;;;;5034091;28;20211;-76
2023/12/29 02:06:54;;;;;;;5.07;1.30;;;10.90;99.90;;;;;;5034627;28;20202;-76
2023/12/29 02:09:22;;;;;;;3.57;1.23;;;10.80;99.90;;;;;;5025310;28;20198;-75
2023/12/29 02:11:50;;;;;;;4.43;1.57;;;10.80;99.90;;;;;;5014787;28;20220;-75
2023/12/29 02:14:19;;;;;;;4.17;1.63;;;10.80;99.90;;;;;;5031202;28;20195;-76
2023/12/29 02:16:56;;;;;;;4.17;1.70;;;10.70;99.90;;;;;;5032260;28;20194;-76
2023/12/29 02:19:39;;;;;;;5.50;2.00;;;10.70;99.90;;;;;;5030879;28;20207;-76
2023/12/29 02:22:09;;;;;;;8.00;2.43;;;10.60;99.90;;;;;;5022358;28;20211;-76
2023/12/29 02:24:37;;;;;;;5.77;1.60;;;10.50;99.90;;;;;;5026724;28;20202;-76
2023/12/29 02:27:19;;;;;;;3.83;1.50;;;10.40;99.90;;;;;;5025278;28;20200;-76
2023/12/29 02:29:55;;;;;;;5.40;1.80;;;10.40;99.90;;;;;;5025669;28;20187;-76
2023/12/29 02:32:24;;;;;;;8.33;2.17;;;10.20;99.90;;;;;;5022041;28;20218;-75
2023/12/29 02:34:52;;;;;;;5.77;2.00;;;10.20;99.90;;;;;;5033524;28;20195;-75
2023/12/29 02:37:21;;;;;;;8.70;2.13;;;10.10;99.90;;;;;;5031071;28;20534;-75
2023/12/29 02:39:48;;;;;;;5.97;2.17;;;10.10;99.90;;;;;;5015988;28;20213;-76
2023/12/29 02:42:17;;;;;;;7.63;2.10;;;10.10;99.90;;;;;;5026707;28;20219;-75
2023/12/29 02:44:44;;;;;;;6.27;2.30;;;10.10;99.90;;;;;;5014157;28;20207;-75
2023/12/29 02:47:12;;;;;;;7.53;3.07;;;10.00;99.90;;;;;;5026425;28;20203;-75
2023/12/29 02:49:39;;;;;;;8.63;2.17;;;10.10;99.90;;;;;;5014293;28;20202;-75
2023/12/29 02:52:07;;;;;;;5.20;2.07;;;10.00;99.90;;;;;;5027150;28;20234;-75
2023/12/29 02:54:34;;;;;;;6.70;2.10;;;10.00;99.90;;;;;;5013671;28;20199;-76
2023/12/29 02:57:01;;;;;;;5.43;2.40;;;10.00;99.90;;;;;;5019480;28;20192;-75
2023/12/29 02:59:31;;;;;;;7.80;2.33;;;10.00;99.90;;;;;;5019385;28;20199;-75
2023/12/29 03:01:59;;;;;;;7.97;2.10;;;9.90;99.90;;;;;;5027982;28;20226;-75
2023/12/29 03:04:26;;;;;;;8.03;2.13;;;9.90;99.90;;;;;;5033116;28;20210;-75
2023/12/29 03:06:53;;;;;;;10.77;2.63;;;10.00;99.90;;;;;;5029368;28;20200;-75
2023/12/29 03:09:21;;;;;;;7.53;2.37;;;10.00;99.90;;;;;;5013210;28;20218;-76
2023/12/29 03:11:48;;;;;;;4.77;2.03;;;10.00;99.90;;;;;;5013398;28;20697;-76
2023/12/29 03:14:16;;;;;;;6.17;2.20;;;10.10;99.90;;;;;;5020734;28;20195;-76
2023/12/29 03:16:45;;;;;;;9.73;2.20;;;10.10;99.90;;;;;;5017864;28;20200;-76
2023/12/29 03:19:12;;;;;;;5.47;1.80;;;10.10;99.90;;;;;;5013429;28;20200;-76
2023/12/29 03:21:40;;;;;;;7.47;2.10;;;10.10;99.90;;;;;;5013253;28;20230;-75
2023/12/29 03:24:08;;;;;;;5.73;2.40;;;10.20;99.90;;;;;;5018368;28;20688;-75
2023/12/29 03:26:35;;;;;;;5.80;2.20;;;10.20;99.90;;;;;;5023830;28;20203;-75
2023/12/29 03:29:03;;;;;;;9.33;2.23;;;10.20;99.90;;;;;;5014646;28;20196;-75
2023/12/29 03:31:30;;;;;;;5.50;2.27;;;10.20;99.90;;;;;;5022570;28;20700;-75
2023/12/29 03:33:59;;;;;;;8.57;1.83;;;10.20;99.90;;;;;;5029202;28;20218;-75
2023/12/29 03:36:26;;;;;;;8.70;2.73;;;10.30;99.90;;;;;;5019880;28;20199;-75
2023/12/29 03:38:53;;;;;;;4.67;2.27;;;10.30;99.90;;;;;;5022154;28;20206;-75
2023/12/29 03:41:21;;;;;;;6.73;1.90;;;10.30;99.90;;;;;;5018549;28;20592;-75
2023/12/29 03:43:48;;;;;;;7.33;2.27;;;10.30;99.90;;;;;;5012778;28;20207;-75
2023/12/29 03:46:18;;;;;;;6.03;2.10;;;10.30;99.90;;;;;;5022683;28;20202;-75
2023/12/29 03:48:45;;;;;;;4.73;1.93;;;10.40;99.90;;;;;;5029047;28;20195;-75
2023/12/29 03:51:15;;;;;;;9.30;2.47;;;10.40;99.90;;;;;;5013558;28;20191;-75
2023/12/29 03:53:43;;;;;;;6.53;2.50;;;10.40;99.90;;;;;;5033842;28;20509;-75
2023/12/29 03:56:15;;;;;;;9.27;2.27;;;10.40;99.90;;;;;;5016543;28;20195;-75
2023/12/29 03:58:43;;;;;;;6.73;2.07;;;10.40;99.90;;;;;;5027237;28;20829;-75
2023/12/29 04:01:11;;;;;;;4.03;2.00;;;10.40;99.90;;;;;;5040680;28;20209;-75
2023/12/29 04:03:38;;;;;;;7.17;1.87;;;10.40;99.90;;;;;;5049928;28;20206;-75
2023/12/29 04:06:06;;;;;;;7.37;2.13;;;10.50;99.90;;;;;;5031326;28;20198;-75
2023/12/29 04:08:35;;;;;;;8.00;1.90;;;10.40;99.90;;;;;;5030592;28;20215;-75
2023/12/29 04:11:04;;;;;;;5.67;1.90;;;10.40;99.90;;;;;;5023902;28;20195;-75
2023/12/29 04:13:32;;;;;;;3.27;1.67;;;10.50;99.90;;;;;;5031870;28;20211;-75
2023/12/29 04:15:59;;;;;;;9.13;2.10;;;10.50;99.90;;;;;;5015862;28;20195;-75
2023/12/29 04:18:26;;;;;;;7.33;2.03;;;10.50;99.90;;;;;;5033226;28;20194;-75
2023/12/29 04:20:54;;;;;;;8.83;2.33;;;10.50;99.90;;;;;;5016486;28;20565;-75
2023/12/29 04:23:21;;;;;;;3.47;1.87;;;10.50;99.90;;;;;;5021774;28;20234;-75
2023/12/29 04:25:50;;;;;;;4.50;1.90;;;10.50;99.90;;;;;;5026452;28;20199;-75
2023/12/29 04:28:17;;;;;;;4.53;1.43;;;10.50;99.90;;;;;;5018155;28;20198;-75
2023/12/29 04:30:45;;;;;;;4.27;1.37;;;10.50;99.90;;;;;;5033201;28;20191;-75
2023/12/29 04:33:12;;;;;;;5.77;1.87;;;10.50;99.90;;;;;;5032986;28;20211;-75
2023/12/29 04:35:40;;;;;;;4.00;1.93;;;10.50;99.90;;;;;;5015509;28;20282;-75
2023/12/29 04:38:07;;;;;;;8.43;2.50;;;10.50;99.90;;;;;;5015318;28;20202;-75
2023/12/29 04:40:35;;;;;;;8.83;2.30;;;10.60;99.90;;;;;;5015409;28;20208;-76
2023/12/29 04:43:05;;;;;;;2.10;1.50;;;10.60;99.90;;;;;;5024826;28;20241;-76
2023/12/29 04:45:32;;;;;;;4.40;1.67;;;10.60;99.90;;;;;;5022633;28;20209;-75
2023/12/29 04:47:59;;;;;;;5.23;1.90;;;10.60;99.90;;;;;;5022572;28;20199;-76
2023/12/29 04:50:27;;;;;;;3.43;1.73;;;10.70;99.90;;;;;;5014538;28;20195;-76
2023/12/29 04:52:55;;;;;;;4.70;1.70;;;10.70;99.90;;;;;;5057877;23;20219;-75
2023/12/29 04:55:22;;;;;;;5.47;1.73;;;10.70;99.90;;;;;;5014328;28;20195;-75
2023/12/29 05:01:39;;;;;;;6.03;1.70;;;10.70;99.90;;;;;;5039188;28;20580;-75
2023/12/29 05:04:06;;;;;;;4.20;1.37;;;10.70;99.90;;;;;;5014302;28;20219;-75
2023/12/29 05:06:33;;;;;;;8.07;1.60;;;10.70;99.90;;;;;;5014565;28;20202;-75
2023/12/29 05:09:01;;;;;;;6.73;1.50;;;10.70;99.90;;;;;;4994068;28;20207;-75
2023/12/29 05:11:28;;;;;;;3.80;1.70;;;10.80;99.90;;;;;;4994959;28;20191;-75
2023/12/29 05:13:56;;;;;;;7.77;1.80;;;10.80;99.90;;;;;;5013890;28;20211;-75
2023/12/29 05:16:23;;;;;;;7.57;1.87;;;10.70;99.90;;;;;;5014781;28;20202;-75
2023/12/29 05:18:52;;;;;;;4.63;1.40;;;10.80;99.90;;;;;;5017521;28;20194;-75
2023/12/29 05:21:20;;;;;;;5.50;1.77;;;10.70;99.90;;;;;;5018639;28;20202;-75
2023/12/29 05:23:48;;;;;;;4.93;1.60;;;10.70;99.90;;;;;;5034482;28;20731;-75
2023/12/29 05:26:16;;;;;;;7.20;1.87;;;10.70;99.90;;;;;;5019031;28;20203;-75
2023/12/29 05:28:43;;;;;;;4.53;1.80;;;10.70;99.90;;;;;;5018789;28;20687;-75
2023/12/29 05:31:11;;;;;;;6.00;1.50;;;10.70;99.90;;;;;;5018815;28;20195;-75
2023/12/29 05:33:38;;;;;;;6.63;1.37;;;10.70;99.90;;;;;;5017422;28;20223;-77
2023/12/29 05:36:11;;;;;;;5.17;1.50;;;10.70;99.90;;;;;;5018769;28;20202;-77
2023/12/29 05:38:41;;;;;;;6.03;2.13;;;10.70;99.90;;;;;;5018283;28;20199;-76
2023/12/29 05:41:08;;;;;;;7.67;1.73;;;10.70;99.90;;;;;;5018540;28;20202;-76
2023/12/29 05:43:36;;;;;;;6.07;2.33;;;10.70;99.90;;;;;;5017358;28;20227;-77
2023/12/29 05:46:03;;;;;;;5.97;1.70;;;10.70;99.90;;;;;;5019022;28;20195;-76
2023/12/29 05:48:31;;;;;;;6.83;1.60;;;10.70;99.90;;;;;;5017394;28;20195;-76
2023/12/29 05:50:58;;;;;;;5.63;1.67;;;10.70;99.90;;;;;;5018603;28;20637;-76
2023/12/29 05:53:27;;;;;;;6.43;1.37;;;10.70;99.90;;;;;;5018032;28;20600;-75
2023/12/29 05:55:55;;;;;;;7.43;1.80;;;10.80;99.90;;;;;;5027717;28;20187;-75
2023/12/29 05:58:22;;;;;;;5.57;1.50;;;10.70;99.90;;;;;;5018551;28;20202;-75
2023/12/29 06:00:50;;;;;;;3.77;1.67;;;10.70;99.90;;;;;;5017837;28;20191;-75
2023/12/29 06:03:17;;;;;;;5.40;1.40;;;10.80;99.90;;;;;;5016779;28;20230;-75
2023/12/29 06:05:45;;;;;;;4.87;1.67;;;10.80;99.90;;;;;;5017523;28;20700;-75
2023/12/29 06:08:12;;;;;;;6.17;1.70;;;10.80;99.90;;;;;;5017825;28;20205;-75
2023/12/29 06:10:41;;;;;;;4.83;2.00;;;10.80;99.90;;;;;;5018346;28;20560;-75
2023/12/29 06:13:08;;;;;;;6.00;1.60;;;10.80;99.90;;;;;;5017595;28;20207;-75
2023/12/29 06:15:36;;;;;;;5.83;1.43;;;10.80;99.90;;;;;;5018052;28;20560;-75
2023/12/29 06:18:05;;;;;;;4.77;1.63;;;10.80;99.90;;;;;;5035719;28;20183;-75
2023/12/29 06:20:32;;;;;;;9.10;1.80;;;10.80;99.90;;;;;;5017338;28;20202;-75
2023/12/29 06:23:00;;;;;;;7.23;1.60;;;10.70;99.90;;;;;;5035117;28;20222;-77
2023/12/29 06:25:28;;;;;;;7.77;1.93;;;10.80;99.90;;;;;;5016935;28;20199;-76
2023/12/29 06:27:57;;;;;;;5.00;1.77;;;10.80;99.90;;;;;;5017182;28;20199;-75
2023/12/29 06:30:24;;;;;;;4.90;1.30;;;10.80;99.90;;;;;;5035285;28;20195;-75
2023/12/29 06:32:52;;;;;;;4.83;1.70;;;10.80;99.90;;;;;;5018004;28;20215;-75
2023/12/29 06:35:19;;;;;;;8.37;1.90;;;10.80;99.90;;;;;;5033879;28;20202;-75
2023/12/29 06:37:47;;;;;;;6.07;1.67;;;10.80;99.90;;;;;;5035185;28;20187;-75
2023/12/29 06:40:14;;;;;;;7.03;1.97;;;10.80;99.90;;;;;;5017760;28;20199;-75
2023/12/29 06:42:42;;;;;;;5.17;1.87;;;10.80;99.90;;;;;;5016740;28;20219;-75
2023/12/29 06:45:11;;;;;;;5.27;1.80;;;10.80;99.90;;;;;;5034620;28;20198;-75
2023/12/29 06:47:39;;;;;;;7.93;2.13;;;10.80;99.90;;;;;;5017488;28;20203;-75
2023/12/29 06:50:09;;;;;;;4.50;1.50;;;10.80;99.90;;;;;;5019493;28;20672;-75
2023/12/29 06:52:37;;;;;;;6.07;1.30;;;10.80;99.90;;;;;;5013422;28;20230;-75
2023/12/29 06:55:04;;;;;;;5.23;1.43;;;10.70;99.90;;;;;;5013180;28;20203;-75
2023/12/29 06:57:32;;;;;;;8.10;1.83;;;10.80;99.90;;;;;;5015124;28;20192;-76
2023/12/29 06:59:59;;;;;;;5.43;1.90;;;10.80;99.90;;;;;;5016680;28;20199;-77
2023/12/29 07:02:28;;;;;;;6.57;1.90;;;11.20;99.90;;;;;;5015398;28;20716;-79
2023/12/29 07:04:56;;;;;;;4.10;1.60;;;11.00;99.90;;;;;;5033227;28;20684;-79
2023/12/29 07:07:24;;;;;;;3.93;1.83;;;11.20;99.90;;;;;;5017582;28;20203;-75
2023/12/29 07:09:51;;;;;;;8.17;1.60;;;11.00;99.90;;;;;;5023577;28;20202;-75
2023/12/29 07:12:19;;;;;;;7.57;2.00;;;10.80;99.90;;;;;;5019710;28;20707;-74
2023/12/29 07:14:57;;;;;;;6.93;1.40;;;10.80;99.90;;;;;;5015742;28;20195;-74
2023/12/29 07:17:54;;;;;;;6.03;1.90;;;10.80;99.90;;;;;;5030325;28;20214;-73
2023/12/29 07:20:25;;;;;;;6.03;1.60;;;10.70;99.90;;;;;;5009457;28;20704;-74
2023/12/29 07:22:53;;;;;;;5.30;1.77;;;10.80;99.90;;;;;;5004398;28;20215;-74
2023/12/29 07:25:20;;;;;;;6.90;1.33;;;10.80;99.90;;;;;;5029556;28;20206;-76
2023/12/29 07:27:48;;;;;;;3.63;1.67;;;10.70;99.90;;;;;;5016441;28;20203;-76
2023/12/29 07:30:16;;;;;;;5.17;1.80;;;10.60;99.90;;;;;;5015964;28;20203;-78
2023/12/29 07:32:44;;;;;;;6.60;1.47;;;10.50;99.90;;;;;;5016182;28;20214;-76
2023/12/29 07:35:16;;;;;;;5.40;1.83;;;10.50;99.90;;;;;;5016437;28;20196;-76
2023/12/29 07:37:44;;;;;;;6.87;1.50;;;10.40;99.90;;;;;;5016556;28;20195;-79
2023/12/29 07:40:12;;;;;;;6.67;1.80;;;10.30;99.90;;;;;;5032993;28;20665;-76
2023/12/29 07:42:40;;;;;;;8.00;1.80;;;10.30;99.90;;;;;;5016569;28;20219;-76
2023/12/29 07:48:56;;;;;;;6.63;1.80;;;10.20;99.90;;;;;;5040038;28;20507;-76
2023/12/29 07:51:25;;;;;;;8.17;2.50;;;10.20;99.90;;;;;;5031792;28;20232;-76
2023/12/29 07:53:52;;;;;;;6.30;2.07;;;10.10;99.90;;;;;;5015815;28;20218;-76
2023/12/29 07:56:20;;;;;;;9.13;2.33;;;10.10;99.90;;;;;;5016275;28;20203;-76
2023/12/29 07:58:48;;;;;;;7.97;2.27;;;10.10;99.90;;;;;;5033389;28;20187;-77
2023/12/29 08:01:15;;;;;;;5.40;1.60;;;10.10;99.90;;;;;;5015939;28;20195;-77
2023/12/29 08:03:42;;;;;;;3.57;1.50;;;10.10;99.90;;;;;;5015560;28;20230;-77
2023/12/29 08:06:10;;;;;;;5.53;1.60;;;10.00;99.90;;;;;;5015908;28;20202;-77
2023/12/29 08:08:39;;;;;;;8.07;1.63;;;10.10;99.90;;;;;;5015352;28;20211;-78
2023/12/29 08:11:13;;;;;;;3.10;1.40;;;10.10;99.90;;;;;;5015097;28;20210;-76
2023/12/29 08:13:40;;;;;;;5.30;1.87;;;10.10;99.90;;;;;;5015388;28;20210;-76
2023/12/29 08:16:08;;;;;;;3.63;1.60;;;10.10;99.90;;;;;;5015730;28;20202;-77
2023/12/29 08:18:35;;;;;;;6.60;1.70;;;10.10;99.90;;;;;;5015869;28;20199;-79
2023/12/29 08:21:03;;;;;;;5.57;1.70;;;10.10;99.90;;;;;;5015576;28;20652;-77
2023/12/29 08:23:31;;;;;;;5.33;1.63;;;10.10;99.90;;;;;;4995945;28;20227;-77
2023/12/29 08:26:00;;;;;;;6.30;2.17;;;10.20;99.90;;;;;;5015099;28;20203;-76
2023/12/29 08:28:27;;;;;;;6.60;1.63;;;10.20;99.90;;;;;;5017623;28;20203;-77
2023/12/29 08:30:55;;;;;;;4.57;1.83;;;10.30;99.90;;;;;;5015349;28;20214;-77
2023/12/29 08:33:23;;;;;;;5.10;2.20;;;10.30;99.90;;;;;;5015139;28;20222;-76
2023/12/29 08:35:51;;;;;;;4.70;1.90;;;10.20;99.90;;;;;;5015229;28;20206;-77
2023/12/29 08:38:18;;;;;;;5.63;2.10;;;10.20;99.90;;;;;;5015018;28;20199;-76
2023/12/29 08:41:36;;;;;;;3.27;1.13;;;10.30;99.90;;;;;;5015623;28;20210;-77
2023/12/29 08:44:05;;;;;;;4.87;2.00;;;10.30;99.90;;;;;;5014803;28;20226;-76
2023/12/29 08:46:32;;;;;;;6.67;1.77;;;10.30;99.90;;;;;;5015029;28;20679;-77
2023/12/29 08:49:00;;;;;;;4.53;1.13;;;10.30;99.90;;;;;;5015324;28;20209;-76
2023/12/29 08:51:28;;;;;;;6.23;1.70;;;10.20;99.90;;;;;;5015209;28;20210;-77
2023/12/29 08:53:56;;;;;;;5.20;1.27;;;10.30;99.90;;;;;;5015407;28;20704;-76
2023/12/29 08:56:24;;;;;;;7.17;1.80;;;10.30;99.90;;;;;;5032734;28;20183;-76
2023/12/29 08:58:52;;;;;;;6.03;1.77;;;10.30;99.90;;;;;;5032717;28;20175;-76
2023/12/29 09:01:21;;;;;;;3.10;1.13;;;10.30;99.90;;;;;;5015179;28;20210;-76
2023/12/29 09:03:49;;;;;;;3.70;1.40;;;10.30;99.90;;;;;;5014253;28;20699;-76
2023/12/29 09:06:16;;;;;;;5.10;1.67;;;10.40;99.90;;;;;;5015278;28;20194;-76
2023/12/29 09:08:43;;;;;;;3.03;1.03;;;10.40;99.90;;;;;;5015075;28;20656;-76
2023/12/29 09:11:11;;;;;;;3.10;1.13;;;10.50;99.90;;;;;;5014902;28;20203;-76
2023/12/29 09:13:38;;;;;;;4.83;1.27;;;10.50;99.90;;;;;;5014807;28;20226;-76
2023/12/29 09:16:06;;;;;;;5.40;0.83;;;10.40;99.90;;;;;;5032456;28;20187;-76
2023/12/29 09:18:35;;;;;;;2.93;0.97;;;10.40;99.90;;;;;;5015103;28;20199;-78
2023/12/29 09:21:03;;;;;;;2.83;0.93;;;10.50;99.90;;;;;;5015109;28;20202;-79
2023/12/29 09:23:30;;;;;;;2.53;0.77;;;10.50;99.90;;;;;;5032459;28;20214;-79
2023/12/29 09:25:57;;;;;;;2.10;0.70;;;10.50;99.90;;;;;;5014702;28;20202;-78
2023/12/29 09:28:25;;;;;;;2.20;0.90;;;10.50;99.90;;;;;;5013840;28;20225;-77
2023/12/29 09:30:52;;;;;;;2.83;0.90;;;10.50;99.90;;;;;;5014772;28;20559;-77
2023/12/29 09:33:20;;;;;;;2.60;0.87;;;10.50;99.90;;;;;;5014775;28;20215;-76
2023/12/29 09:35:50;;;;;;;3.23;1.03;;;10.50;99.90;;;;;;5014190;28;20226;-76
2023/12/29 09:38:17;;;;;;;2.73;1.00;;;10.50;99.90;;;;;;5014947;28;20195;-76
2023/12/29 09:40:45;;;;;;;1.33;0.80;;;10.40;99.90;;;;;;5014724;28;20209;-76
2023/12/29 09:43:14;;;;;;;2.47;0.70;;;10.40;99.90;;;;;;5013935;28;20576;-76
2023/12/29 09:45:46;;;;;;;2.97;0.87;;;10.50;99.90;;;;;;5014765;28;20206;-76
2023/12/29 09:48:19;;;;;;;3.60;0.60;;;10.50;99.90;;;;;;5014066;28;20207;-76
2023/12/29 09:50:47;;;;;;;1.47;0.70;;;10.50;99.90;;;;;;5014022;28;20199;-76
2023/12/29 09:53:16;;;;;;;1.47;0.60;;;10.50;99.90;;;;;;5014415;28;20246;-76
2023/12/29 09:55:47;;;;;;;2.07;0.70;;;10.50;99.90;;;;;;5014046;28;20195;-76
2023/12/29 09:58:15;;;;;;;1.10;0.50;;;10.50;99.90;;;;;;5014609;28;20213;-77
2023/12/29 10:00:43;;;;;;;0.70;0.53;;;10.60;99.90;;;;;;5014064;28;20203;-76
2023/12/29 10:03:11;;;;;;;1.80;0.70;;;10.50;99.90;;;;;;5014472;28;20238;-76
2023/12/29 10:05:38;;;;;;;2.90;0.80;;;10.40;99.90;;;;;;5017958;28;20215;-76
2023/12/29 10:08:09;;;;;;;1.30;0.47;;;10.50;99.90;;;;;;5035776;28;20190;-76
2023/12/29 10:10:41;;;;;;;1.20;0.60;;;10.50;99.90;;;;;;5017194;28;20210;-76
2023/12/29 10:13:11;;;;;;;1.07;0.60;;;10.40;99.90;;;;;;5017163;28;20218;-76
2023/12/29 10:15:48;;;;;;;1.73;0.70;;;10.50;99.90;;;;;;5006574;28;20550;-76
2023/12/29 10:18:28;;;;;;;0.63;0.40;;;10.60;99.90;;;;;;5017594;28;20199;-77
2023/12/29 10:21:02;;;;;;;2.03;0.53;;;10.50;99.90;;;;;;5035595;28;20187;-77
2023/12/29 10:23:39;;;;;;;1.83;0.80;;;10.40;99.90;;;;;;5024460;28;20219;-77
2023/12/29 10:26:30;;;;;;;1.67;0.73;;;10.40;99.90;;;;;;5015567;28;20544;-77
2023/12/29 10:28:58;;;;;;;1.40;0.50;;;10.50;99.90;;;;;;4997588;28;20204;-76
2023/12/29 10:31:32;;;;;;;0.90;0.60;;;10.50;99.90;;;;;;5015847;28;20218;-77
2023/12/29 10:34:28;;;;;;;2.23;0.40;;;10.40;99.90;;;;;;5013858;28;20576;-77
2023/12/29 10:36:56;;;;;;;1.23;0.53;;;10.40;99.90;;;;;;4998843;28;20211;-77
2023/12/29 10:39:24;;;;;;;1.23;0.63;;;10.40;99.90;;;;;;5013301;28;20206;-77
2023/12/29 10:42:04;;;;;;;2.50;0.70;;;10.50;99.90;;;;;;5002911;28;20203;-77
2023/12/29 10:44:31;;;;;;;0.87;0.50;;;10.40;99.90;;;;;;5011405;28;20225;-77
2023/12/29 10:46:59;;;;;;;1.97;0.70;;;10.50;99.90;;;;;;5017455;28;20286;-77
2023/12/29 10:49:26;;;;;;;1.07;0.40;;;10.50;99.90;;;;;;5028618;28;20200;-77
2023/12/29 10:52:13;;;;;;;1.10;0.60;;;10.50;99.90;;;;;;5013688;28;20680;-77
2023/12/29 10:54:41;;;;;;;1.33;0.50;;;10.50;99.90;;;;;;5051747;23;20233;-78
2023/12/29 10:57:16;;;;;;;1.13;0.60;;;10.50;99.90;;;;;;5053092;28;20194;-78
2023/12/29 10:59:43;;;;;;;2.70;0.90;;;10.60;99.90;;;;;;5033483;28;20210;-78
2023/12/29 11:02:15;;;;;;;1.63;1.20;;;10.50;99.90;;;;;;5046796;28;20210;-78
2023/12/29 11:04:51;;;;;;;1.90;0.90;;;10.60;99.90;;;;;;5039191;28;20222;-78
2023/12/29 11:07:32;;;;;;;1.77;0.93;;;10.70;99.90;;;;;;5027899;28;20203;-78
2023/12/29 11:10:03;;;;;;;1.83;0.80;;;10.70;99.90;;;;;;5034278;28;20190;-78
2023/12/29 11:12:34;;;;;;;1.60;0.60;;;10.60;99.90;;;;;;5032661;28;20206;-78
2023/12/29 11:15:03;;;;;;;1.13;0.70;;;10.80;99.90;;;;;;5032787;28;20219;-78
2023/12/29 11:17:32;;;;;;;2.33;0.70;;;10.80;99.90;;;;;;5029186;28;20210;-78
2023/12/29 11:20:00;;;;;;;1.17;0.60;;;10.80;99.90;;;;;;5014469;28;20203;-78
2023/12/29 11:22:30;;;;;;;1.63;0.80;;;10.90;99.90;;;;;;5029749;28;20200;-78
2023/12/29 11:24:59;;;;;;;2.53;0.80;;;10.90;99.90;;;;;;5044402;28;20222;-78
2023/12/29 11:27:29;;;;;;;0.83;0.70;;;10.90;99.90;;;;;;5032848;28;20199;-78
2023/12/29 11:30:05;;;;;;;1.40;0.93;;;10.90;99.90;;;;;;5032286;28;20210;-77
2023/12/29 11:32:46;;;;;;;3.30;0.73;;;10.90;99.90;;;;;;5020350;28;20564;-77
2023/12/29 11:35:18;;;;;;;3.70;0.97;;;10.90;99.90;;;;;;5029429;28;20216;-77
2023/12/29 11:38:00;;;;;;;2.50;0.87;;;10.90;99.90;;;;;;5014286;28;20574;-77
2023/12/29 11:40:35;;;;;;;2.20;0.80;;;11.00;99.90;;;;;;5029455;28;20199;-77
2023/12/29 11:43:08;;;;;;;3.50;1.13;;;11.00;99.90;;;;;;5045660;28;20563;-77
2023/12/29 11:45:44;;;;;;;5.30;2.00;;;11.00;99.90;;;;;;5020181;28;20207;-78
2023/12/29 11:48:12;;;;;;;1.60;0.90;;;11.10;99.90;;;;;;5028685;28;20214;-77
2023/12/29 11:50:41;;;;;;;2.60;0.90;;;11.10;99.90;;;;;;5028923;28;20214;-77
2023/12/29 11:53:09;;;;;;;2.77;1.00;;;11.10;99.90;;;;;;5031632;28;20203;-78
2023/12/29 11:55:38;;;;;;;3.57;1.40;;;11.10;99.90;;;;;;5032406;28;20199;-78
2023/12/29 11:58:23;;;;;;;2.67;1.23;;;11.10;99.90;;;;;;5031943;28;20691;-77
2023/12/29 12:00:52;;;;;;;3.47;1.67;;;11.10;99.90;;;;;;5048392;28;20564;-77
2023/12/29 12:03:25;;;;;;;5.80;1.57;;;11.10;99.90;;;;;;5031495;28;20212;-76
2023/12/29 12:06:03;;;;;;;3.23;1.17;;;11.20;99.90;;;;;;5033365;28;20195;-78
2023/12/29 12:08:34;;;;;;;2.10;1.10;;;11.20;99.90;;;;;;5028427;28;20206;-78
2023/12/29 12:11:38;;;;;;;3.87;1.40;;;11.20;99.90;;;;;;5014111;28;20200;-78
2023/12/29 12:14:08;;;;;;;3.27;1.80;;;11.20;99.90;;;;;;5027719;28;20220;-77
2023/12/29 12:16:50;;;;;;;5.67;2.27;;;11.20;99.90;;;;;;5028943;28;20198;-78
2023/12/29 12:19:20;;;;;;;2.40;1.10;;;11.20;99.90;;;;;;5029413;28;20199;-78
2023/12/29 12:21:49;;;;;;;2.83;1.00;;;11.10;99.90;;;;;;5028727;28;20208;-77
2023/12/29 12:24:36;;;;;;;2.37;1.10;;;11.20;99.90;;;;;;5043033;28;20524;-78
2023/12/29 12:27:04;;;;;;;2.53;1.00;;;11.20;99.90;;;;;;5031190;28;20199;-78
2023/12/29 12:29:32;;;;;;;2.50;0.90;;;11.20;99.90;;;;;;5018182;28;20206;-78
2023/12/29 12:32:01;;;;;;;1.77;0.80;;;11.20;99.90;;;;;;5031727;28;20211;-78
2023/12/29 12:34:40;;;;;;;2.10;1.07;;;11.20;99.90;;;;;;5031202;28;20230;-78
2023/12/29 12:37:08;;;;;;;2.17;1.07;;;11.20;99.90;;;;;;5033044;28;20183;-78
2023/12/29 12:39:38;;;;;;;2.27;1.53;;;11.20;99.90;;;;;;5032957;28;20187;-78
2023/12/29 12:42:06;;;;;;;3.03;1.17;;;11.10;99.90;;;;;;5031515;28;20198;-78
2023/12/29 12:44:34;;;;;;;1.57;1.20;;;11.10;99.90;;;;;;5030924;28;20234;-78
2023/12/29 12:47:08;;;;;;;3.27;1.37;;;11.10;99.90;;;;;;5030940;28;20215;-78
2023/12/29 12:49:36;;;;;;;3.80;2.00;;;11.20;99.90;;;;;;5031441;28;20197;-78
2023/12/29 12:52:04;;;;;;;2.47;1.50;;;11.10;99.90;;;;;;5031381;28;20195;-79
2023/12/29 12:54:32;;;;;;;4.97;1.93;;;11.20;99.90;;;;;;5030997;28;20231;-78
2023/12/29 12:57:00;;;;;;;2.13;1.60;;;11.20;99.90;;;;;;5031296;28;20686;-78
2023/12/29 12:59:28;;;;;;;3.67;1.50;;;11.10;99.90;;;;;;5031258;28;20222;-79
2023/12/29 13:01:56;;;;;;;1.80;1.30;;;11.10;99.90;;;;;;5032634;28;20202;-78
2023/12/29 13:04:25;;;;;;;3.90;1.73;;;11.10;99.90;;;;;;5032253;28;20207;-78
2023/12/29 13:06:53;;;;;;;2.77;2.00;;;11.10;99.90;;;;;;5031117;28;20217;-78